createdAt,value
2017-11-15T00:01:41.203Z,96.60
2017-11-15T00:04:43.353Z,96.90
2017-11-15T00:07:44.721Z,96.90
2017-11-15T00:10:46.806Z,97.10
2017-11-15T00:13:48.164Z,97.00
2017-11-15T00:16:56.604Z,96.90
2017-11-15T00:19:58.050Z,96.90
2017-11-15T00:22:59.420Z,96.90
2017-11-15T00:26:00.797Z,96.90
2017-11-15T00:29:02.185Z,96.80
2017-11-15T00:32:03.571Z,96.80
2017-11-15T00:35:04.979Z,97.00
2017-11-15T00:38:06.413Z,97.00
2017-11-15T00:41:08.530Z,96.80
2017-11-15T00:44:09.891Z,96.80
2017-11-15T00:47:11.264Z,96.70
2017-11-15T00:50:12.665Z,96.60
2017-11-15T00:53:14.011Z,97.10
2017-11-15T00:56:15.392Z,96.90
2017-11-15T00:59:16.785Z,96.90
2017-11-15T01:02:18.937Z,96.80
2017-11-15T01:05:20.323Z,96.80
2017-11-15T01:08:21.686Z,96.90
2017-11-15T01:11:23.102Z,97.00
2017-11-15T01:14:25.209Z,97.00
2017-11-15T01:17:26.573Z,97.00
2017-11-15T01:20:27.958Z,97.10
2017-11-15T01:23:29.373Z,96.80
2017-11-15T01:26:30.790Z,96.80
2017-11-15T01:29:32.924Z,96.80
2017-11-15T01:32:34.237Z,96.80
2017-11-15T01:35:35.630Z,96.80
2017-11-15T01:38:37.165Z,97.10
2017-11-15T01:41:38.580Z,96.60
2017-11-15T01:44:40.034Z,96.60
2017-11-15T01:47:41.432Z,96.60
2017-11-15T01:50:42.855Z,96.60
2017-11-15T01:53:44.258Z,96.80
2017-11-15T01:56:46.446Z,96.90
2017-11-15T01:59:48.664Z,96.80
2017-11-15T02:02:50.052Z,96.70
2017-11-15T02:05:52.205Z,96.70
2017-11-15T02:08:53.566Z,96.60
2017-11-15T02:11:55.717Z,96.70
2017-11-15T02:14:57.089Z,96.70
2017-11-15T02:22:04.212Z,96.80
2017-11-15T02:25:05.613Z,96.80
2017-11-15T02:28:07.049Z,96.60
2017-11-15T02:31:08.482Z,96.70
2017-11-15T02:34:09.927Z,96.70
2017-11-15T02:37:11.404Z,96.70
2017-11-15T02:40:12.864Z,96.50
2017-11-15T02:43:14.272Z,96.50
2017-11-15T02:46:16.393Z,96.60
2017-11-15T02:49:17.803Z,96.70
2017-11-15T02:52:19.184Z,96.70
2017-11-15T02:55:20.661Z,96.70
2017-11-15T02:58:22.005Z,96.90
2017-11-15T03:01:23.517Z,96.90
2017-11-15T03:04:24.888Z,96.80
2017-11-15T03:07:26.338Z,96.80
2017-11-15T03:10:27.745Z,96.60
2017-11-15T03:13:29.333Z,96.60
2017-11-15T03:16:30.713Z,96.60
2017-11-15T03:19:39.019Z,96.70
2017-11-15T03:22:40.353Z,96.80
2017-11-15T03:25:41.773Z,96.80
2017-11-15T03:28:43.952Z,96.90
2017-11-15T03:31:45.319Z,96.90
2017-11-15T03:34:46.756Z,96.60
2017-11-15T03:37:48.916Z,96.80
2017-11-15T03:40:51.117Z,96.70
2017-11-15T03:43:52.497Z,96.70
2017-11-15T03:46:53.819Z,96.80
2017-11-15T03:49:55.262Z,97.00
2017-11-15T03:52:56.596Z,96.90
2017-11-15T03:55:58.019Z,96.90
2017-11-15T03:58:59.418Z,96.90
2017-11-15T04:02:00.766Z,96.90
2017-11-15T04:05:02.220Z,96.70
2017-11-15T04:08:03.590Z,96.70
2017-11-15T04:11:05.017Z,96.70
2017-11-15T04:14:06.474Z,96.70
2017-11-15T04:17:07.819Z,96.70
2017-11-15T04:20:09.224Z,96.70
2017-11-15T04:23:10.646Z,96.70
2017-11-15T04:26:11.984Z,96.60
2017-11-15T04:29:13.387Z,96.50
2017-11-15T04:32:15.467Z,97.10
2017-11-15T04:35:17.602Z,96.80
2017-11-15T04:38:19.013Z,96.70
2017-11-15T04:41:20.402Z,97.00
2017-11-15T04:44:21.806Z,96.90
2017-11-15T04:47:23.185Z,96.90
2017-11-15T04:50:24.578Z,96.90
2017-11-15T04:53:26.658Z,96.70
2017-11-15T04:56:28.776Z,96.80
2017-11-15T04:59:30.150Z,96.80
2017-11-15T05:02:31.497Z,96.50
2017-11-15T05:05:32.858Z,96.50
2017-11-15T05:08:34.225Z,96.50
2017-11-15T05:11:36.318Z,96.70
2017-11-15T05:14:37.712Z,96.60
2017-11-15T05:17:39.128Z,96.70
2017-11-15T05:20:40.502Z,96.60
2017-11-15T05:23:41.923Z,96.80
2017-11-15T05:26:43.278Z,96.50
2017-11-15T05:29:44.685Z,96.60
2017-11-15T05:32:46.066Z,96.70
2017-11-15T05:35:48.265Z,96.70
2017-11-15T05:38:49.701Z,96.70
2017-11-15T05:41:51.142Z,96.80
2017-11-15T05:44:53.270Z,96.60
2017-11-15T05:47:54.657Z,96.60
2017-11-15T05:50:56.738Z,96.90
2017-11-15T05:53:58.127Z,96.90
2017-11-15T05:56:59.579Z,96.90
2017-11-15T06:00:00.953Z,96.60
2017-11-15T06:03:02.332Z,96.80
2017-11-15T06:06:04.440Z,96.70
2017-11-15T06:09:05.822Z,96.70
2017-11-15T06:12:07.287Z,96.80
2017-11-15T06:15:09.351Z,96.70
2017-11-15T06:18:10.737Z,96.60
2017-11-15T06:21:12.103Z,96.60
2017-11-15T06:24:13.532Z,96.70
2017-11-15T06:27:15.097Z,96.50
2017-11-15T06:30:16.447Z,96.70
2017-11-15T06:33:17.721Z,96.60
2017-11-15T06:36:19.156Z,96.70
2017-11-15T06:39:20.532Z,96.50
2017-11-15T06:42:21.800Z,96.70
2017-11-15T06:45:23.084Z,96.40
2017-11-15T06:48:24.389Z,96.20
2017-11-15T06:51:25.682Z,96.30
2017-11-15T06:54:27.050Z,96.30
2017-11-15T06:57:28.358Z,96.30
2017-11-15T07:00:29.728Z,96.30
2017-11-15T07:03:31.777Z,96.20
2017-11-15T07:06:33.066Z,96.20
2017-11-15T07:09:34.413Z,96.10
2017-11-15T07:12:35.734Z,96.20
2017-11-15T07:15:37.737Z,96.10
2017-11-15T07:18:39.037Z,96.10
2017-11-15T07:21:40.338Z,96.20
2017-11-15T07:24:41.644Z,96.40
2017-11-15T07:27:43.701Z,96.50
2017-11-15T07:30:44.965Z,96.40
2017-11-15T07:33:47.036Z,96.40
2017-11-15T07:36:49.150Z,99.50
2017-11-15T07:39:50.540Z,99.50
2017-11-15T07:42:52.665Z,88.20
2017-11-15T07:45:53.959Z,87.90
2017-11-15T07:48:55.988Z,90.80
2017-11-15T07:51:57.296Z,90.70
2017-11-15T07:54:58.578Z,93.40
2017-11-15T07:57:59.903Z,94.20
2017-11-15T08:01:01.150Z,94.70
2017-11-15T08:04:02.470Z,95.30
2017-11-15T08:07:04.525Z,95.50
2017-11-15T08:10:05.813Z,95.50
2017-11-15T08:13:07.159Z,95.80
2017-11-15T08:16:08.440Z,95.80
2017-11-15T08:19:09.731Z,96.10
2017-11-15T08:22:11.808Z,96.00
2017-11-15T08:25:13.844Z,96.00
2017-11-15T08:28:15.149Z,96.00
2017-11-15T08:31:16.449Z,96.00
2017-11-15T08:34:17.738Z,96.00
2017-11-15T08:37:19.033Z,96.00
2017-11-15T08:40:20.418Z,96.10
2017-11-15T08:43:22.838Z,96.20
2017-11-15T08:46:24.184Z,96.10
2017-11-15T08:49:25.494Z,96.10
2017-11-15T08:52:27.573Z,96.20
2017-11-15T08:55:28.870Z,96.10
2017-11-15T08:58:30.240Z,96.30
2017-11-15T09:01:31.552Z,96.20
2017-11-15T09:04:32.872Z,96.20
2017-11-15T09:07:34.179Z,96.00
2017-11-15T09:10:35.501Z,96.30
2017-11-15T09:13:36.809Z,96.40
2017-11-15T09:16:38.838Z,96.20
2017-11-15T09:19:40.156Z,96.20
2017-11-15T09:22:41.412Z,96.20
2017-11-15T09:25:42.738Z,96.20
2017-11-15T09:28:44.042Z,96.30
2017-11-15T09:31:45.359Z,96.20
2017-11-15T09:34:46.668Z,96.10
2017-11-15T09:37:48.689Z,95.90
2017-11-15T09:40:50.005Z,95.90
2017-11-15T09:43:51.285Z,95.90
2017-11-15T09:46:52.624Z,95.80
2017-11-15T09:49:53.943Z,95.90
2017-11-15T09:52:55.258Z,95.90
2017-11-15T09:55:57.312Z,95.90
2017-11-15T09:58:58.596Z,95.80
2017-11-15T10:02:00.898Z,95.70
2017-11-15T10:05:02.804Z,95.70
2017-11-15T10:08:05.149Z,95.90
2017-11-15T10:11:07.565Z,95.70
2017-11-15T10:14:09.956Z,95.80
2017-11-15T10:17:11.257Z,95.70
2017-11-15T10:20:12.607Z,95.90
2017-11-15T10:23:13.869Z,95.80
2017-11-15T10:26:15.190Z,95.90
2017-11-15T10:29:16.481Z,96.10
2017-11-15T10:32:17.788Z,96.30
2017-11-15T10:35:19.127Z,96.60
2017-11-15T10:38:20.527Z,96.60
2017-11-15T10:41:21.825Z,96.50
2017-11-15T10:44:23.147Z,96.60
2017-11-15T10:47:25.164Z,96.70
2017-11-15T10:50:26.445Z,96.70
2017-11-15T10:53:27.723Z,96.70
2017-11-15T10:56:29.784Z,96.50
2017-11-15T10:59:31.858Z,96.60
2017-11-15T11:02:33.264Z,96.60
2017-11-15T11:05:35.320Z,96.20
2017-11-15T11:08:36.596Z,96.20
2017-11-15T11:11:37.884Z,96.30
2017-11-15T11:14:39.180Z,96.20
2017-11-15T11:17:40.505Z,95.90
2017-11-15T11:20:41.785Z,96.00
2017-11-15T11:23:43.084Z,95.90
2017-11-15T11:26:44.361Z,95.90
2017-11-15T11:29:45.656Z,96.00
2017-11-15T11:32:47.743Z,95.90
2017-11-15T11:35:49.029Z,95.80
2017-11-15T11:38:51.074Z,95.50
2017-11-15T11:41:53.177Z,95.50
2017-11-15T11:44:54.506Z,95.50
2017-11-15T11:47:55.832Z,95.60
2017-11-15T11:50:57.212Z,95.60
2017-11-15T11:53:58.645Z,95.60
2017-11-15T11:56:59.957Z,95.50
2017-11-15T12:00:02.216Z,95.30
2017-11-15T12:03:03.654Z,95.30
2017-11-15T12:06:05.053Z,95.40
2017-11-15T12:09:06.354Z,95.60
2017-11-15T12:12:07.673Z,95.60
2017-11-15T12:15:08.922Z,95.60
2017-11-15T12:18:10.248Z,95.80
2017-11-15T12:21:11.569Z,95.90
2017-11-15T12:24:13.385Z,96.00
2017-11-15T12:27:14.685Z,96.30
2017-11-15T12:30:16.748Z,96.00
2017-11-15T12:33:18.095Z,96.00
2017-11-15T12:36:20.214Z,96.10
2017-11-15T12:39:21.567Z,96.60
2017-11-15T12:42:24.299Z,96.40
2017-11-15T12:45:25.806Z,96.00
2017-11-15T12:48:27.188Z,95.80
2017-11-15T12:51:29.331Z,95.70
2017-11-15T12:54:31.158Z,95.70
2017-11-15T12:57:32.549Z,95.80
2017-11-15T13:00:33.891Z,95.80
2017-11-15T13:03:35.124Z,96.00
2017-11-15T13:06:36.418Z,96.10
2017-11-15T13:09:37.713Z,96.20
2017-11-15T13:12:39.010Z,96.40
2017-11-15T13:15:40.340Z,96.30
2017-11-15T13:18:41.655Z,96.20
2017-11-15T13:21:42.950Z,96.10
2017-11-15T13:24:44.277Z,96.10
2017-11-15T13:27:45.583Z,96.50
2017-11-15T13:30:47.651Z,96.50
2017-11-15T13:33:49.754Z,96.70
2017-11-15T13:36:51.070Z,96.60
2017-11-15T13:39:53.132Z,96.70
2017-11-15T13:42:55.180Z,96.80
2017-11-15T13:45:56.518Z,96.70
2017-11-15T13:48:57.801Z,96.90
2017-11-15T13:51:59.886Z,97.10
2017-11-15T13:55:01.161Z,97.10
2017-11-15T13:58:02.463Z,97.30
2017-11-15T14:01:04.487Z,96.40
2017-11-15T14:04:05.807Z,96.40
2017-11-15T14:07:07.093Z,96.50
2017-11-15T14:10:08.420Z,96.90
2017-11-15T14:13:09.720Z,97.00
2017-11-15T14:16:11.743Z,97.30
2017-11-15T14:19:13.052Z,97.00
2017-11-15T14:22:15.049Z,96.90
2017-11-15T14:25:16.332Z,96.90
2017-11-15T14:28:17.620Z,96.60
2017-11-15T14:31:18.951Z,96.80
2017-11-15T14:34:20.974Z,96.80
2017-11-15T14:37:22.260Z,96.80
2017-11-15T14:40:23.566Z,97.00
2017-11-15T14:43:24.893Z,97.10
2017-11-15T14:46:26.208Z,96.90
2017-11-15T14:49:27.497Z,96.60
2017-11-15T14:52:28.794Z,96.60
2017-11-15T14:55:30.149Z,97.50
2017-11-15T14:58:31.465Z,96.90
2017-11-15T15:01:32.796Z,96.10
2017-11-15T15:04:34.096Z,96.80
2017-11-15T15:07:35.404Z,96.70
2017-11-15T15:10:36.700Z,97.10
2017-11-15T15:13:37.995Z,97.30
2017-11-15T15:16:39.261Z,97.20
2017-11-15T15:19:40.536Z,97.10
2017-11-15T15:22:41.796Z,97.00
2017-11-15T15:25:43.830Z,97.30
2017-11-15T15:28:45.115Z,97.30
2017-11-15T15:31:47.220Z,97.30
2017-11-15T15:34:48.529Z,97.30
2017-11-15T15:37:49.792Z,97.20
2017-11-15T15:40:51.828Z,97.40
2017-11-15T15:43:53.155Z,97.70
2017-11-15T15:46:55.297Z,97.40
2017-11-15T15:49:56.532Z,97.40
2017-11-15T15:52:57.825Z,97.30
2017-11-15T15:55:59.071Z,97.30
2017-11-15T15:59:00.392Z,97.30
2017-11-15T16:02:01.709Z,97.20
2017-11-15T16:05:03.712Z,97.30
2017-11-15T16:08:05.023Z,97.30
2017-11-15T16:11:07.072Z,97.30
2017-11-15T16:14:08.361Z,97.20
2017-11-15T16:17:09.628Z,97.20
2017-11-15T16:20:10.934Z,97.20
2017-11-15T16:23:12.919Z,97.20
2017-11-15T16:26:14.211Z,97.20
2017-11-15T16:29:15.462Z,97.00
2017-11-15T16:32:16.807Z,97.00
2017-11-15T16:35:18.147Z,97.10
2017-11-15T16:38:19.457Z,97.10
2017-11-15T16:41:21.544Z,97.10
2017-11-15T16:44:22.881Z,97.10
2017-11-15T16:47:24.169Z,97.20
2017-11-15T16:50:25.456Z,97.20
2017-11-15T16:53:27.488Z,97.30
2017-11-15T16:56:30.328Z,97.30
2017-11-15T16:59:32.342Z,97.30
2017-11-15T17:02:33.660Z,97.30
2017-11-15T17:05:34.936Z,97.40
2017-11-15T17:08:36.229Z,97.20
2017-11-15T17:11:38.269Z,97.20
2017-11-15T17:14:39.584Z,97.20
2017-11-15T17:17:41.048Z,97.30
2017-11-15T17:20:42.360Z,97.20
2017-11-15T17:23:43.728Z,97.30
2017-11-15T17:26:45.072Z,97.30
2017-11-15T17:29:46.408Z,97.30
2017-11-15T17:32:48.504Z,97.20
2017-11-15T17:35:49.877Z,97.20
2017-11-15T17:38:51.187Z,97.10
2017-11-15T17:41:52.507Z,97.00
2017-11-15T17:44:53.821Z,97.10
2017-11-15T17:47:55.811Z,97.20
2017-11-15T17:50:58.073Z,97.30
2017-11-15T17:53:59.454Z,97.20
2017-11-15T17:57:01.572Z,97.10
2017-11-15T18:00:02.987Z,97.10
2017-11-15T18:03:04.345Z,97.00
2017-11-15T18:06:05.698Z,97.00
2017-11-15T18:09:07.085Z,96.90
2017-11-15T18:12:09.649Z,97.00
2017-11-15T18:15:10.997Z,97.10
2017-11-15T18:18:12.359Z,97.00
2017-11-15T18:21:13.727Z,97.10
2017-11-15T18:24:15.123Z,96.90
2017-11-15T18:27:16.437Z,97.10
2017-11-15T18:30:17.790Z,97.10
2017-11-15T18:33:19.971Z,97.20
2017-11-15T18:36:21.374Z,97.20
2017-11-15T18:39:23.691Z,97.30
2017-11-15T18:42:25.061Z,97.30
2017-11-15T18:45:27.587Z,97.20
2017-11-15T18:48:28.969Z,97.20
2017-11-15T18:51:30.473Z,97.10
2017-11-15T18:54:31.968Z,97.20
2017-11-15T18:57:34.723Z,97.20
2017-11-15T19:00:36.588Z,97.20
2017-11-15T19:03:37.988Z,97.30
2017-11-15T19:06:39.337Z,97.30
2017-11-15T19:09:40.722Z,97.30
2017-11-15T19:12:42.873Z,97.30
2017-11-15T19:15:44.374Z,97.30
2017-11-15T19:18:45.821Z,97.30
2017-11-15T19:21:47.952Z,97.10
2017-11-15T19:24:51.705Z,97.10
2017-11-15T19:27:53.598Z,97.10
2017-11-15T19:30:55.028Z,96.90
2017-11-15T19:33:57.301Z,97.10
2017-11-15T19:36:58.684Z,97.00
2017-11-15T19:40:00.024Z,97.10
2017-11-15T19:43:01.481Z,96.90
2017-11-15T19:46:05.059Z,97.10
2017-11-15T19:49:06.647Z,97.00
2017-11-15T19:52:08.913Z,97.20
2017-11-15T19:55:10.271Z,97.10
2017-11-15T19:58:13.043Z,97.00
2017-11-15T20:01:14.543Z,97.00
2017-11-15T20:04:16.044Z,97.00
2017-11-15T20:07:18.228Z,96.80
2017-11-15T20:10:20.931Z,96.80
2017-11-15T20:13:22.300Z,96.80
2017-11-15T20:16:24.993Z,96.80
2017-11-15T20:19:26.507Z,96.80
2017-11-15T20:22:28.932Z,96.80
2017-11-15T20:25:30.277Z,96.80
2017-11-15T20:28:31.606Z,96.60
2017-11-15T20:31:34.369Z,96.60
2017-11-15T20:34:35.679Z,96.60
2017-11-15T20:37:37.048Z,96.80
2017-11-15T20:40:38.794Z,96.50
2017-11-15T20:43:40.176Z,96.50
2017-11-15T20:46:42.649Z,96.50
2017-11-15T20:49:44.628Z,96.40
2017-11-15T20:52:48.053Z,96.40
2017-11-15T20:55:50.723Z,96.40
2017-11-15T20:58:52.757Z,96.50
2017-11-15T21:01:54.192Z,96.50
2017-11-15T21:04:55.807Z,96.50
2017-11-15T21:07:58.372Z,96.40
2017-11-15T21:11:00.580Z,96.80
2017-11-15T21:14:02.035Z,96.50
2017-11-15T21:17:03.444Z,96.00
2017-11-15T21:20:04.849Z,96.00
2017-11-15T21:23:06.200Z,96.10
2017-11-15T21:26:07.505Z,95.30
2017-11-15T21:29:10.031Z,95.60
2017-11-15T21:32:11.805Z,95.50
2017-11-15T21:35:13.236Z,95.70
2017-11-15T21:38:17.786Z,96.10
2017-11-15T21:41:19.448Z,96.00
2017-11-15T21:44:21.165Z,96.10
2017-11-15T21:47:23.214Z,96.10
2017-11-15T21:50:26.297Z,96.20
2017-11-15T21:53:28.214Z,96.20
2017-11-15T21:56:29.614Z,96.30
2017-11-15T21:59:31.110Z,96.20
2017-11-15T22:02:32.734Z,96.20
2017-11-15T22:05:34.546Z,96.20
2017-11-15T22:08:35.986Z,96.20
2017-11-15T22:11:39.590Z,96.20
2017-11-15T22:14:41.136Z,96.20
2017-11-15T22:17:42.632Z,96.20
2017-11-15T22:20:44.055Z,96.10
2017-11-15T22:23:45.726Z,96.10
2017-11-15T22:26:47.140Z,96.10
2017-11-15T22:29:49.319Z,95.80
2017-11-15T22:32:50.745Z,95.70
2017-11-15T22:35:52.983Z,95.60
2017-11-15T22:38:54.517Z,95.50
2017-11-15T22:41:55.865Z,95.20
2017-11-15T22:44:57.339Z,95.10
2017-11-15T22:47:58.771Z,95.00
2017-11-15T22:51:00.224Z,94.30
2017-11-15T22:54:01.650Z,93.80
2017-11-15T22:57:03.044Z,94.40
2017-11-15T23:00:04.616Z,94.70
2017-11-15T23:03:06.028Z,94.40
2017-11-15T23:06:07.455Z,94.70
2017-11-15T23:09:09.598Z,94.10
2017-11-15T23:12:11.117Z,94.10
2017-11-15T23:15:12.567Z,93.90
2017-11-15T23:18:13.968Z,94.30
2017-11-15T23:21:16.114Z,94.90
2017-11-15T23:24:17.594Z,94.90
2017-11-15T23:27:19.790Z,94.40
2017-11-15T23:30:21.928Z,94.10
2017-11-15T23:33:23.335Z,94.00
2017-11-15T23:36:24.783Z,94.50
2017-11-15T23:39:26.230Z,94.30
2017-11-15T23:42:27.645Z,93.70
2017-11-15T23:45:29.821Z,94.00
2017-11-15T23:48:31.981Z,94.30
2017-11-15T23:51:34.073Z,94.50
2017-11-15T23:54:35.452Z,94.50
2017-11-15T23:57:36.769Z,93.80
